sensor_id;sensor_type;location;lat;lon;timestamp;temperature;humidity
23051;DHT22;11693;51.358;12.410;2022-08-21T00:01:55;23.20;99.90
23051;DHT22;11693;51.358;12.410;2022-08-21T00:04:21;23.10;99.90
23051;DHT22;11693;51.358;12.410;2022-08-21T00:06:47;23.10;99.90
23051;DHT22;11693;51.358;12.410;2022-08-21T00:09:12;23.10;99.90
23051;DHT22;11693;51.358;12.410;2022-08-21T00:11:38;23.00;99.90
23051;DHT22;11693;51.358;12.410;2022-08-21T00:14:07;23.10;99.90
23051;DHT22;11693;51.358;12.410;2022-08-21T00:16:34;22.90;99.90
23051;DHT22;11693;51.358;12.410;2022-08-21T00:19:00;22.90;99.90
23051;DHT22;11693;51.358;12.410;2022-08-21T00:21:25;22.90;99.90
23051;DHT22;11693;51.358;12.410;2022-08-21T00:23:52;22.90;99.90
23051;DHT22;11693;51.358;12.410;2022-08-21T00:26:17;22.90;99.90
23051;DHT22;11693;51.358;12.410;2022-08-21T00:28:43;22.80;99.90
23051;DHT22;11693;51.358;12.410;2022-08-21T00:31:11;22.80;99.90
23051;DHT22;11693;51.358;12.410;2022-08-21T00:33:36;22.90;99.90
23051;DHT22;11693;51.358;12.410;2022-08-21T00:36:02;22.90;99.90
23051;DHT22;11693;51.358;12.410;2022-08-21T00:38:28;22.90;99.90
23051;DHT22;11693;51.358;12.410;2022-08-21T00:40:57;23.00;99.90
23051;DHT22;11693;51.358;12.410;2022-08-21T00:43:28;23.00;99.90
23051;DHT22;11693;51.358;12.410;2022-08-21T00:45:54;23.00;99.90
23051;DHT22;11693;51.358;12.410;2022-08-21T00:48:21;23.10;99.90
23051;DHT22;11693;51.358;12.410;2022-08-21T00:50:52;23.10;99.90
23051;DHT22;11693;51.358;12.410;2022-08-21T00:53:19;22.90;99.90
23051;DHT22;11693;51.358;12.410;2022-08-21T00:55:46;22.90;99.90
23051;DHT22;11693;51.358;12.410;2022-08-21T00:58:13;22.80;99.90
23051;DHT22;11693;51.358;12.410;2022-08-21T01:00:42;22.80;99.90
23051;DHT22;11693;51.358;12.410;2022-08-21T01:03:15;22.80;99.90
23051;DHT22;11693;51.358;12.410;2022-08-21T01:05:41;22.80;99.90
23051;DHT22;11693;51.358;12.410;2022-08-21T01:08:08;22.70;99.90
23051;DHT22;11693;51.358;12.410;2022-08-21T01:10:35;22.80;99.90
23051;DHT22;11693;51.358;12.410;2022-08-21T01:13:01;22.80;99.90
23051;DHT22;11693;51.358;12.410;2022-08-21T01:15:33;22.70;99.90
23051;DHT22;11693;51.358;12.410;2022-08-21T01:17:59;22.70;99.90
23051;DHT22;11693;51.358;12.410;2022-08-21T01:20:25;22.80;99.90
23051;DHT22;11693;51.358;12.410;2022-08-21T01:22:52;22.80;99.90
23051;DHT22;11693;51.358;12.410;2022-08-21T01:25:18;22.80;99.90
23051;DHT22;11693;51.358;12.410;2022-08-21T01:27:47;22.90;99.90
23051;DHT22;11693;51.358;12.410;2022-08-21T01:30:24;22.90;99.90
23051;DHT22;11693;51.358;12.410;2022-08-21T01:32:51;22.90;99.90
23051;DHT22;11693;51.358;12.410;2022-08-21T01:35:18;23.00;99.90
23051;DHT22;11693;51.358;12.410;2022-08-21T01:37:45;22.90;99.90
23051;DHT22;11693;51.358;12.410;2022-08-21T01:40:13;22.90;99.90
23051;DHT22;11693;51.358;12.410;2022-08-21T01:42:41;22.90;99.90
23051;DHT22;11693;51.358;12.410;2022-08-21T01:45:07;22.90;99.90
23051;DHT22;11693;51.358;12.410;2022-08-21T01:47:33;22.80;99.90
23051;DHT22;11693;51.358;12.410;2022-08-21T01:50:00;22.70;99.90
23051;DHT22;11693;51.358;12.410;2022-08-21T01:52:26;22.70;99.90
23051;DHT22;11693;51.358;12.410;2022-08-21T01:54:51;22.60;99.90
23051;DHT22;11693;51.358;12.410;2022-08-21T01:57:17;22.60;99.90
23051;DHT22;11693;51.358;12.410;2022-08-21T01:59:43;22.60;99.90
23051;DHT22;11693;51.358;12.410;2022-08-21T02:02:09;22.60;99.90
23051;DHT22;11693;51.358;12.410;2022-08-21T02:04:34;22.50;99.90
23051;DHT22;11693;51.358;12.410;2022-08-21T02:07:01;22.60;99.90
23051;DHT22;11693;51.358;12.410;2022-08-21T02:09:27;22.50;99.90
23051;DHT22;11693;51.358;12.410;2022-08-21T02:11:52;22.40;99.90
23051;DHT22;11693;51.358;12.410;2022-08-21T02:14:19;22.50;99.90
23051;DHT22;11693;51.358;12.410;2022-08-21T02:16:45;22.50;99.90
23051;DHT22;11693;51.358;12.410;2022-08-21T02:19:13;22.40;99.90
23051;DHT22;11693;51.358;12.410;2022-08-21T02:21:39;22.40;99.90
23051;DHT22;11693;51.358;12.410;2022-08-21T02:24:05;22.40;99.90
23051;DHT22;11693;51.358;12.410;2022-08-21T02:26:30;22.40;99.90
23051;DHT22;11693;51.358;12.410;2022-08-21T02:28:56;22.40;99.90
23051;DHT22;11693;51.358;12.410;2022-08-21T02:31:22;22.40;99.90
23051;DHT22;11693;51.358;12.410;2022-08-21T02:33:47;22.40;99.90
23051;DHT22;11693;51.358;12.410;2022-08-21T02:36:13;22.30;99.90
23051;DHT22;11693;51.358;12.410;2022-08-21T02:38:41;22.40;99.90
23051;DHT22;11693;51.358;12.410;2022-08-21T02:41:14;22.40;99.90
23051;DHT22;11693;51.358;12.410;2022-08-21T02:43:40;22.40;99.90
23051;DHT22;11693;51.358;12.410;2022-08-21T02:46:07;22.30;99.90
23051;DHT22;11693;51.358;12.410;2022-08-21T02:48:33;22.20;99.90
23051;DHT22;11693;51.358;12.410;2022-08-21T02:51:08;22.20;99.90
23051;DHT22;11693;51.358;12.410;2022-08-21T02:53:35;22.20;99.90
23051;DHT22;11693;51.358;12.410;2022-08-21T02:56:03;22.10;99.90
23051;DHT22;11693;51.358;12.410;2022-08-21T02:58:35;22.10;99.90
23051;DHT22;11693;51.358;12.410;2022-08-21T03:01:01;22.10;99.90
23051;DHT22;11693;51.358;12.410;2022-08-21T03:03:28;22.10;99.90
23051;DHT22;11693;51.358;12.410;2022-08-21T03:05:55;22.00;99.90
23051;DHT22;11693;51.358;12.410;2022-08-21T03:08:22;22.00;99.90
23051;DHT22;11693;51.358;12.410;2022-08-21T03:10:51;22.00;99.90
23051;DHT22;11693;51.358;12.410;2022-08-21T03:13:18;22.00;99.90
23051;DHT22;11693;51.358;12.410;2022-08-21T03:15:44;22.10;99.90
23051;DHT22;11693;51.358;12.410;2022-08-21T03:18:11;22.00;99.90
23051;DHT22;11693;51.358;12.410;2022-08-21T03:20:39;22.10;99.90
23051;DHT22;11693;51.358;12.410;2022-08-21T03:23:05;22.10;99.90
23051;DHT22;11693;51.358;12.410;2022-08-21T03:25:33;22.10;99.90
23051;DHT22;11693;51.358;12.410;2022-08-21T03:28:00;22.20;99.90
23051;DHT22;11693;51.358;12.410;2022-08-21T03:30:26;22.10;99.90
23051;DHT22;11693;51.358;12.410;2022-08-21T03:32:51;22.00;99.90
23051;DHT22;11693;51.358;12.410;2022-08-21T03:35:18;22.10;99.90
23051;DHT22;11693;51.358;12.410;2022-08-21T03:37:44;22.10;99.90
23051;DHT22;11693;51.358;12.410;2022-08-21T03:40:11;22.00;99.90
23051;DHT22;11693;51.358;12.410;2022-08-21T03:42:38;22.00;99.90
23051;DHT22;11693;51.358;12.410;2022-08-21T03:45:04;22.10;99.90
23051;DHT22;11693;51.358;12.410;2022-08-21T03:47:30;22.00;99.90
23051;DHT22;11693;51.358;12.410;2022-08-21T03:49:56;22.10;99.90
23051;DHT22;11693;51.358;12.410;2022-08-21T03:52:21;22.10;99.90
23051;DHT22;11693;51.358;12.410;2022-08-21T03:54:47;22.20;99.90
23051;DHT22;11693;51.358;12.410;2022-08-21T03:57:13;22.10;99.90
23051;DHT22;11693;51.358;12.410;2022-08-21T03:59:38;22.10;99.90
23051;DHT22;11693;51.358;12.410;2022-08-21T04:02:06;22.10;99.90
23051;DHT22;11693;51.358;12.410;2022-08-21T04:04:33;22.20;99.90
23051;DHT22;11693;51.358;12.410;2022-08-21T04:06:59;22.10;99.90
23051;DHT22;11693;51.358;12.410;2022-08-21T04:09:26;22.10;99.90
23051;DHT22;11693;51.358;12.410;2022-08-21T04:11:51;22.10;99.90
23051;DHT22;11693;51.358;12.410;2022-08-21T04:14:17;22.10;99.90
23051;DHT22;11693;51.358;12.410;2022-08-21T04:16:44;22.00;99.90
23051;DHT22;11693;51.358;12.410;2022-08-21T04:19:10;21.90;99.90
23051;DHT22;11693;51.358;12.410;2022-08-21T04:21:37;21.90;99.90
23051;DHT22;11693;51.358;12.410;2022-08-21T04:24:07;21.80;99.90
23051;DHT22;11693;51.358;12.410;2022-08-21T04:26:37;21.80;99.90
23051;DHT22;11693;51.358;12.410;2022-08-21T04:29:04;21.80;99.90
23051;DHT22;11693;51.358;12.410;2022-08-21T04:31:32;21.80;99.90
23051;DHT22;11693;51.358;12.410;2022-08-21T04:33:57;21.90;99.90
23051;DHT22;11693;51.358;12.410;2022-08-21T04:36:23;22.00;99.90
23051;DHT22;11693;51.358;12.410;2022-08-21T04:38:49;22.00;99.90
23051;DHT22;11693;51.358;12.410;2022-08-21T04:41:14;22.00;99.90
23051;DHT22;11693;51.358;12.410;2022-08-21T04:43:40;22.00;99.90
23051;DHT22;11693;51.358;12.410;2022-08-21T04:46:06;22.20;99.90
23051;DHT22;11693;51.358;12.410;2022-08-21T04:48:32;22.10;99.90
23051;DHT22;11693;51.358;12.410;2022-08-21T04:51:02;22.10;99.90
23051;DHT22;11693;51.358;12.410;2022-08-21T04:53:39;22.10;99.90
23051;DHT22;11693;51.358;12.410;2022-08-21T04:56:11;22.10;99.90
23051;DHT22;11693;51.358;12.410;2022-08-21T04:58:38;22.20;99.90
23051;DHT22;11693;51.358;12.410;2022-08-21T05:01:07;22.20;99.90
23051;DHT22;11693;51.358;12.410;2022-08-21T05:03:34;22.30;99.90
23051;DHT22;11693;51.358;12.410;2022-08-21T05:06:04;22.40;99.90
23051;DHT22;11693;51.358;12.410;2022-08-21T05:08:32;22.40;99.90
23051;DHT22;11693;51.358;12.410;2022-08-21T05:10:59;22.30;99.90
23051;DHT22;11693;51.358;12.410;2022-08-21T05:13:24;22.40;99.90
23051;DHT22;11693;51.358;12.410;2022-08-21T05:15:50;22.40;99.90
23051;DHT22;11693;51.358;12.410;2022-08-21T05:18:16;22.40;99.90
23051;DHT22;11693;51.358;12.410;2022-08-21T05:20:41;22.40;99.90
23051;DHT22;11693;51.358;12.410;2022-08-21T05:23:09;22.50;99.90
23051;DHT22;11693;51.358;12.410;2022-08-21T05:25:35;22.50;99.90
23051;DHT22;11693;51.358;12.410;2022-08-21T05:28:01;22.50;99.90
23051;DHT22;11693;51.358;12.410;2022-08-21T05:30:26;22.60;99.90
23051;DHT22;11693;51.358;12.410;2022-08-21T05:32:57;22.50;99.90
23051;DHT22;11693;51.358;12.410;2022-08-21T05:35:23;22.60;99.90
23051;DHT22;11693;51.358;12.410;2022-08-21T05:37:49;22.60;99.90
23051;DHT22;11693;51.358;12.410;2022-08-21T05:40:15;22.60;99.90
23051;DHT22;11693;51.358;12.410;2022-08-21T05:42:40;22.70;99.90
23051;DHT22;11693;51.358;12.410;2022-08-21T05:45:06;22.70;99.90
23051;DHT22;11693;51.358;12.410;2022-08-21T05:47:32;22.80;99.90
23051;DHT22;11693;51.358;12.410;2022-08-21T05:49:57;22.80;99.90
23051;DHT22;11693;51.358;12.410;2022-08-21T05:52:23;22.90;99.90
23051;DHT22;11693;51.358;12.410;2022-08-21T05:54:49;22.90;99.90
23051;DHT22;11693;51.358;12.410;2022-08-21T05:57:15;23.00;99.90
23051;DHT22;11693;51.358;12.410;2022-08-21T05:59:41;23.10;99.90
23051;DHT22;11693;51.358;12.410;2022-08-21T06:02:07;23.20;99.90
23051;DHT22;11693;51.358;12.410;2022-08-21T06:04:38;23.30;99.90
23051;DHT22;11693;51.358;12.410;2022-08-21T06:07:04;23.40;99.90
23051;DHT22;11693;51.358;12.410;2022-08-21T06:09:29;23.40;99.90
23051;DHT22;11693;51.358;12.410;2022-08-21T06:11:55;23.50;99.90
23051;DHT22;11693;51.358;12.410;2022-08-21T06:14:20;23.60;99.90
23051;DHT22;11693;51.358;12.410;2022-08-21T06:16:46;23.70;99.90
23051;DHT22;11693;51.358;12.410;2022-08-21T06:19:12;23.90;99.90
23051;DHT22;11693;51.358;12.410;2022-08-21T06:21:37;24.00;99.90
23051;DHT22;11693;51.358;12.410;2022-08-21T06:24:04;24.00;99.90
23051;DHT22;11693;51.358;12.410;2022-08-21T06:26:30;24.10;99.90
23051;DHT22;11693;51.358;12.410;2022-08-21T06:28:56;24.00;99.90
23051;DHT22;11693;51.358;12.410;2022-08-21T06:31:26;24.10;99.90
23051;DHT22;11693;51.358;12.410;2022-08-21T06:33:53;24.20;99.90
23051;DHT22;11693;51.358;12.410;2022-08-21T06:36:19;24.20;99.90
23051;DHT22;11693;51.358;12.410;2022-08-21T06:38:46;24.20;99.90
23051;DHT22;11693;51.358;12.410;2022-08-21T06:41:12;24.20;99.90
23051;DHT22;11693;51.358;12.410;2022-08-21T06:43:38;24.30;99.90
23051;DHT22;11693;51.358;12.410;2022-08-21T06:46:03;24.30;99.90
23051;DHT22;11693;51.358;12.410;2022-08-21T06:48:29;24.30;99.90
23051;DHT22;11693;51.358;12.410;2022-08-21T06:50:58;24.20;99.90
23051;DHT22;11693;51.358;12.410;2022-08-21T06:53:24;24.20;99.90
23051;DHT22;11693;51.358;12.410;2022-08-21T06:55:50;24.30;99.90
23051;DHT22;11693;51.358;12.410;2022-08-21T06:58:16;24.40;99.90
23051;DHT22;11693;51.358;12.410;2022-08-21T07:00:44;24.50;99.90
23051;DHT22;11693;51.358;12.410;2022-08-21T07:03:19;24.50;99.90
23051;DHT22;11693;51.358;12.410;2022-08-21T07:05:45;24.50;99.90
23051;DHT22;11693;51.358;12.410;2022-08-21T07:08:11;24.60;99.90
23051;DHT22;11693;51.358;12.410;2022-08-21T07:10:36;24.50;99.90
23051;DHT22;11693;51.358;12.410;2022-08-21T07:13:02;24.40;99.90
23051;DHT22;11693;51.358;12.410;2022-08-21T07:15:30;24.50;99.90
23051;DHT22;11693;51.358;12.410;2022-08-21T07:17:58;24.50;99.90
23051;DHT22;11693;51.358;12.410;2022-08-21T07:20:24;24.70;99.90
23051;DHT22;11693;51.358;12.410;2022-08-21T07:22:50;24.90;99.90
23051;DHT22;11693;51.358;12.410;2022-08-21T07:25:15;25.00;99.90
23051;DHT22;11693;51.358;12.410;2022-08-21T07:27:41;25.20;99.90
23051;DHT22;11693;51.358;12.410;2022-08-21T07:30:07;25.30;99.90
23051;DHT22;11693;51.358;12.410;2022-08-21T07:32:33;25.60;99.90
23051;DHT22;11693;51.358;12.410;2022-08-21T07:35:02;25.80;99.90
23051;DHT22;11693;51.358;12.410;2022-08-21T07:37:27;26.00;99.90
23051;DHT22;11693;51.358;12.410;2022-08-21T07:39:53;26.10;99.90
23051;DHT22;11693;51.358;12.410;2022-08-21T07:42:18;26.30;99.90
23051;DHT22;11693;51.358;12.410;2022-08-21T07:44:44;26.50;99.90
23051;DHT22;11693;51.358;12.410;2022-08-21T07:47:09;26.70;99.90
23051;DHT22;11693;51.358;12.410;2022-08-21T07:49:35;26.70;99.90
23051;DHT22;11693;51.358;12.410;2022-08-21T07:52:01;26.70;99.90
23051;DHT22;11693;51.358;12.410;2022-08-21T07:54:26;26.70;99.90
23051;DHT22;11693;51.358;12.410;2022-08-21T07:56:52;26.70;99.90
23051;DHT22;11693;51.358;12.410;2022-08-21T07:59:18;26.70;99.90
23051;DHT22;11693;51.358;12.410;2022-08-21T08:01:44;26.60;99.90
23051;DHT22;11693;51.358;12.410;2022-08-21T08:04:09;26.60;99.90
23051;DHT22;11693;51.358;12.410;2022-08-21T08:06:35;26.70;99.90
23051;DHT22;11693;51.358;12.410;2022-08-21T08:09:00;26.80;99.90
23051;DHT22;11693;51.358;12.410;2022-08-21T08:11:29;26.90;99.90
23051;DHT22;11693;51.358;12.410;2022-08-21T08:13:55;26.80;99.90
23051;DHT22;11693;51.358;12.410;2022-08-21T08:16:22;26.80;99.90
23051;DHT22;11693;51.358;12.410;2022-08-21T08:18:48;26.80;99.90
23051;DHT22;11693;51.358;12.410;2022-08-21T08:21:14;26.80;99.90
23051;DHT22;11693;51.358;12.410;2022-08-21T08:23:40;26.80;99.90
23051;DHT22;11693;51.358;12.410;2022-08-21T08:26:06;26.90;99.90
23051;DHT22;11693;51.358;12.410;2022-08-21T08:28:32;26.90;99.90
23051;DHT22;11693;51.358;12.410;2022-08-21T08:30:59;27.00;99.90
23051;DHT22;11693;51.358;12.410;2022-08-21T08:33:25;27.00;99.90
23051;DHT22;11693;51.358;12.410;2022-08-21T08:35:51;27.20;99.90
23051;DHT22;11693;51.358;12.410;2022-08-21T08:38:19;27.30;99.90
23051;DHT22;11693;51.358;12.410;2022-08-21T08:43:32;27.50;99.90
23051;DHT22;11693;51.358;12.410;2022-08-21T08:46:01;27.70;99.90
23051;DHT22;11693;51.358;12.410;2022-08-21T08:48:56;28.10;99.90
23051;DHT22;11693;51.358;12.410;2022-08-21T08:54:17;28.30;99.90
23051;DHT22;11693;51.358;12.410;2022-08-21T08:56:44;28.50;99.90
23051;DHT22;11693;51.358;12.410;2022-08-21T08:59:25;28.70;99.90
23051;DHT22;11693;51.358;12.410;2022-08-21T09:01:52;29.00;99.90
23051;DHT22;11693;51.358;12.410;2022-08-21T09:04:22;29.20;99.90
23051;DHT22;11693;51.358;12.410;2022-08-21T09:09:42;29.40;99.90
23051;DHT22;11693;51.358;12.410;2022-08-21T09:18:24;29.70;99.90
23051;DHT22;11693;51.358;12.410;2022-08-21T09:26:27;30.30;98.00
23051;DHT22;11693;51.358;12.410;2022-08-21T09:28:58;30.10;98.10
23051;DHT22;11693;51.358;12.410;2022-08-21T09:31:33;30.10;95.20
23051;DHT22;11693;51.358;12.410;2022-08-21T09:34:10;29.80;96.60
23051;DHT22;11693;51.358;12.410;2022-08-21T09:36:44;29.90;98.10
23051;DHT22;11693;51.358;12.410;2022-08-21T09:39:12;29.90;95.10
23051;DHT22;11693;51.358;12.410;2022-08-21T09:41:39;30.30;94.90
23051;DHT22;11693;51.358;12.410;2022-08-21T09:44:06;30.30;94.10
23051;DHT22;11693;51.358;12.410;2022-08-21T09:46:33;30.30;94.80
23051;DHT22;11693;51.358;12.410;2022-08-21T09:49:01;30.40;94.20
23051;DHT22;11693;51.358;12.410;2022-08-21T09:51:29;30.30;90.80
23051;DHT22;11693;51.358;12.410;2022-08-21T09:56:52;30.60;93.00
23051;DHT22;11693;51.358;12.410;2022-08-21T09:59:37;30.90;92.70
23051;DHT22;11693;51.358;12.410;2022-08-21T10:02:41;31.40;90.80
23051;DHT22;11693;51.358;12.410;2022-08-21T10:07:41;31.60;87.70
23051;DHT22;11693;51.358;12.410;2022-08-21T10:10:23;31.70;89.40
23051;DHT22;11693;51.358;12.410;2022-08-21T10:22:03;32.10;85.10
23051;DHT22;11693;51.358;12.410;2022-08-21T10:27:38;31.70;81.90
23051;DHT22;11693;51.358;12.410;2022-08-21T10:33:16;31.50;83.90
23051;DHT22;11693;51.358;12.410;2022-08-21T10:38:58;31.30;81.40
23051;DHT22;11693;51.358;12.410;2022-08-21T10:49:36;31.30;82.90
23051;DHT22;11693;51.358;12.410;2022-08-21T10:52:35;31.80;82.70
23051;DHT22;11693;51.358;12.410;2022-08-21T10:55:08;32.60;78.90
23051;DHT22;11693;51.358;12.410;2022-08-21T10:57:48;33.10;75.30
23051;DHT22;11693;51.358;12.410;2022-08-21T11:00:21;33.70;77.50
23051;DHT22;11693;51.358;12.410;2022-08-21T11:02:58;34.10;72.30
23051;DHT22;11693;51.358;12.410;2022-08-21T11:05:33;34.30;68.50
23051;DHT22;11693;51.358;12.410;2022-08-21T11:13:19;35.30;65.10
23051;DHT22;11693;51.358;12.410;2022-08-21T11:16:03;35.20;63.00
23051;DHT22;11693;51.358;12.410;2022-08-21T11:18:37;35.50;64.90
23051;DHT22;11693;51.358;12.410;2022-08-21T11:21:47;35.80;63.40
23051;DHT22;11693;51.358;12.410;2022-08-21T11:27:24;36.50;58.60
23051;DHT22;11693;51.358;12.410;2022-08-21T11:29:59;36.80;60.90
23051;DHT22;11693;51.358;12.410;2022-08-21T11:38:39;37.90;55.20
23051;DHT22;11693;51.358;12.410;2022-08-21T11:43:41;38.50;56.50
23051;DHT22;11693;51.358;12.410;2022-08-21T11:57:14;38.10;49.30
23051;DHT22;11693;51.358;12.410;2022-08-21T12:00:11;37.80;48.80
23051;DHT22;11693;51.358;12.410;2022-08-21T12:02:45;37.70;50.40
23051;DHT22;11693;51.358;12.410;2022-08-21T12:05:31;37.30;53.10
23051;DHT22;11693;51.358;12.410;2022-08-21T12:08:28;36.80;51.90
23051;DHT22;11693;51.358;12.410;2022-08-21T12:13:38;38.20;51.10
23051;DHT22;11693;51.358;12.410;2022-08-21T12:16:14;39.20;49.80
23051;DHT22;11693;51.358;12.410;2022-08-21T12:18:40;40.00;50.20
23051;DHT22;11693;51.358;12.410;2022-08-21T12:26:56;40.80;47.90
23051;DHT22;11693;51.358;12.410;2022-08-21T12:29:28;41.30;46.30
23051;DHT22;11693;51.358;12.410;2022-08-21T12:32:23;41.50;46.10
23051;DHT22;11693;51.358;12.410;2022-08-21T12:34:58;41.80;44.50
23051;DHT22;11693;51.358;12.410;2022-08-21T12:37:40;42.00;43.10
23051;DHT22;11693;51.358;12.410;2022-08-21T12:40:22;41.80;44.40
23051;DHT22;11693;51.358;12.410;2022-08-21T12:42:54;41.70;44.80
23051;DHT22;11693;51.358;12.410;2022-08-21T12:45:29;41.00;44.10
23051;DHT22;11693;51.358;12.410;2022-08-21T12:47:57;39.60;45.80
23051;DHT22;11693;51.358;12.410;2022-08-21T12:53:30;39.10;47.30
23051;DHT22;11693;51.358;12.410;2022-08-21T12:55:57;39.90;44.60
23051;DHT22;11693;51.358;12.410;2022-08-21T12:58:29;39.30;44.10
23051;DHT22;11693;51.358;12.410;2022-08-21T13:03:27;37.50;46.40
23051;DHT22;11693;51.358;12.410;2022-08-21T13:05:53;36.80;48.00
23051;DHT22;11693;51.358;12.410;2022-08-21T13:08:21;36.30;49.00
23051;DHT22;11693;51.358;12.410;2022-08-21T13:10:59;36.80;48.90
23051;DHT22;11693;51.358;12.410;2022-08-21T13:13:27;38.00;47.50
23051;DHT22;11693;51.358;12.410;2022-08-21T13:15:59;39.40;47.00
23051;DHT22;11693;51.358;12.410;2022-08-21T13:18:28;40.00;44.90
23051;DHT22;11693;51.358;12.410;2022-08-21T13:21:07;40.50;45.30
23051;DHT22;11693;51.358;12.410;2022-08-21T13:23:35;41.10;44.60
23051;DHT22;11693;51.358;12.410;2022-08-21T13:26:00;41.70;42.80
23051;DHT22;11693;51.358;12.410;2022-08-21T13:28:35;41.80;41.70
23051;DHT22;11693;51.358;12.410;2022-08-21T13:31:07;40.80;43.20
23051;DHT22;11693;51.358;12.410;2022-08-21T13:33:37;39.40;44.90
23051;DHT22;11693;51.358;12.410;2022-08-21T13:36:09;38.30;45.30
23051;DHT22;11693;51.358;12.410;2022-08-21T13:38:39;37.10;47.10
23051;DHT22;11693;51.358;12.410;2022-08-21T13:41:21;36.90;46.20
23051;DHT22;11693;51.358;12.410;2022-08-21T13:43:59;37.20;46.20
23051;DHT22;11693;51.358;12.410;2022-08-21T13:46:32;37.90;47.80
23051;DHT22;11693;51.358;12.410;2022-08-21T13:49:00;38.20;46.50
23051;DHT22;11693;51.358;12.410;2022-08-21T13:51:28;38.40;46.90
23051;DHT22;11693;51.358;12.410;2022-08-21T13:53:54;38.20;46.90
23051;DHT22;11693;51.358;12.410;2022-08-21T13:56:31;38.20;46.70
23051;DHT22;11693;51.358;12.410;2022-08-21T13:58:59;39.00;45.50
23051;DHT22;11693;51.358;12.410;2022-08-21T14:01:37;40.00;44.30
23051;DHT22;11693;51.358;12.410;2022-08-21T14:04:23;41.00;43.20
23051;DHT22;11693;51.358;12.410;2022-08-21T14:06:50;41.40;42.90
23051;DHT22;11693;51.358;12.410;2022-08-21T14:09:39;41.10;43.20
23051;DHT22;11693;51.358;12.410;2022-08-21T14:12:26;40.70;43.00
23051;DHT22;11693;51.358;12.410;2022-08-21T14:14:53;40.40;41.70
23051;DHT22;11693;51.358;12.410;2022-08-21T14:17:29;39.60;42.80
23051;DHT22;11693;51.358;12.410;2022-08-21T14:19:54;38.30;45.00
23051;DHT22;11693;51.358;12.410;2022-08-21T14:27:52;35.30;48.30
23051;DHT22;11693;51.358;12.410;2022-08-21T14:30:20;34.40;49.30
23051;DHT22;11693;51.358;12.410;2022-08-21T14:32:47;33.70;51.90
23051;DHT22;11693;51.358;12.410;2022-08-21T14:35:13;33.10;50.40
23051;DHT22;11693;51.358;12.410;2022-08-21T14:37:42;32.60;52.10
23051;DHT22;11693;51.358;12.410;2022-08-21T14:40:09;32.10;52.80
23051;DHT22;11693;51.358;12.410;2022-08-21T14:42:35;31.70;53.60
23051;DHT22;11693;51.358;12.410;2022-08-21T14:45:07;31.40;55.00
23051;DHT22;11693;51.358;12.410;2022-08-21T14:47:36;31.20;53.60
23051;DHT22;11693;51.358;12.410;2022-08-21T14:50:03;30.80;53.80
23051;DHT22;11693;51.358;12.410;2022-08-21T14:52:28;30.40;54.60
23051;DHT22;11693;51.358;12.410;2022-08-21T14:54:54;30.20;56.50
23051;DHT22;11693;51.358;12.410;2022-08-21T14:57:20;30.00;56.00
23051;DHT22;11693;51.358;12.410;2022-08-21T14:59:45;29.90;55.70
23051;DHT22;11693;51.358;12.410;2022-08-21T15:02:11;29.80;57.60
23051;DHT22;11693;51.358;12.410;2022-08-21T15:04:37;29.80;57.80
23051;DHT22;11693;51.358;12.410;2022-08-21T15:07:03;29.80;56.90
23051;DHT22;11693;51.358;12.410;2022-08-21T15:09:29;29.70;57.70
23051;DHT22;11693;51.358;12.410;2022-08-21T15:11:57;29.60;59.10
23051;DHT22;11693;51.358;12.410;2022-08-21T15:14:27;29.40;59.00
23051;DHT22;11693;51.358;12.410;2022-08-21T15:16:53;29.50;59.90
23051;DHT22;11693;51.358;12.410;2022-08-21T15:19:18;29.50;59.50
23051;DHT22;11693;51.358;12.410;2022-08-21T15:21:44;29.50;58.60
23051;DHT22;11693;51.358;12.410;2022-08-21T15:24:10;29.40;59.00
23051;DHT22;11693;51.358;12.410;2022-08-21T15:26:36;29.30;58.80
23051;DHT22;11693;51.358;12.410;2022-08-21T15:29:02;29.30;58.60
23051;DHT22;11693;51.358;12.410;2022-08-21T15:31:29;29.30;58.80
23051;DHT22;11693;51.358;12.410;2022-08-21T15:33:54;29.20;59.50
23051;DHT22;11693;51.358;12.410;2022-08-21T15:36:20;29.20;60.10
23051;DHT22;11693;51.358;12.410;2022-08-21T15:38:46;29.20;59.50
23051;DHT22;11693;51.358;12.410;2022-08-21T15:41:12;29.20;59.90
23051;DHT22;11693;51.358;12.410;2022-08-21T15:43:56;29.20;59.10
23051;DHT22;11693;51.358;12.410;2022-08-21T15:46:22;29.30;59.50
23051;DHT22;11693;51.358;12.410;2022-08-21T15:48:48;29.30;60.90
23051;DHT22;11693;51.358;12.410;2022-08-21T15:51:15;29.40;59.70
23051;DHT22;11693;51.358;12.410;2022-08-21T15:53:41;29.40;59.80
23051;DHT22;11693;51.358;12.410;2022-08-21T15:56:24;29.40;58.70
23051;DHT22;11693;51.358;12.410;2022-08-21T15:58:52;29.30;60.30
23051;DHT22;11693;51.358;12.410;2022-08-21T16:01:20;29.30;61.10
23051;DHT22;11693;51.358;12.410;2022-08-21T16:03:49;29.20;59.50
23051;DHT22;11693;51.358;12.410;2022-08-21T16:06:15;29.10;59.50
23051;DHT22;11693;51.358;12.410;2022-08-21T16:08:41;29.20;58.80
23051;DHT22;11693;51.358;12.410;2022-08-21T16:11:07;29.10;58.60
23051;DHT22;11693;51.358;12.410;2022-08-21T16:13:39;29.10;58.90
23051;DHT22;11693;51.358;12.410;2022-08-21T16:16:09;29.00;59.60
23051;DHT22;11693;51.358;12.410;2022-08-21T16:18:36;29.10;62.80
23051;DHT22;11693;51.358;12.410;2022-08-21T16:21:02;29.10;61.90
23051;DHT22;11693;51.358;12.410;2022-08-21T16:23:27;29.10;62.30
23051;DHT22;11693;51.358;12.410;2022-08-21T16:25:54;29.00;60.00
23051;DHT22;11693;51.358;12.410;2022-08-21T16:28:22;28.90;60.50
23051;DHT22;11693;51.358;12.410;2022-08-21T16:30:49;28.80;64.20
23051;DHT22;11693;51.358;12.410;2022-08-21T16:33:46;28.80;63.30
23051;DHT22;11693;51.358;12.410;2022-08-21T16:36:14;28.60;60.20
23051;DHT22;11693;51.358;12.410;2022-08-21T16:38:40;28.50;62.10
23051;DHT22;11693;51.358;12.410;2022-08-21T16:41:12;28.50;63.10
23051;DHT22;11693;51.358;12.410;2022-08-21T16:43:41;28.50;63.10
23051;DHT22;11693;51.358;12.410;2022-08-21T16:46:09;28.50;63.30
23051;DHT22;11693;51.358;12.410;2022-08-21T16:48:35;28.50;65.60
23051;DHT22;11693;51.358;12.410;2022-08-21T16:51:01;28.60;63.90
23051;DHT22;11693;51.358;12.410;2022-08-21T16:53:27;28.50;65.90
23051;DHT22;11693;51.358;12.410;2022-08-21T16:55:52;28.50;65.00
23051;DHT22;11693;51.358;12.410;2022-08-21T16:58:20;28.40;66.30
23051;DHT22;11693;51.358;12.410;2022-08-21T17:00:48;28.40;64.30
23051;DHT22;11693;51.358;12.410;2022-08-21T17:03:16;28.30;65.60
23051;DHT22;11693;51.358;12.410;2022-08-21T17:05:44;28.20;63.50